createdAt,value
2018-02-18T00:01:05.704Z,57.23
2018-02-18T00:03:34.112Z,61.37
2018-02-18T00:06:02.134Z,56.50
2018-02-18T00:08:29.803Z,59.77
2018-02-18T00:10:57.485Z,56.23
2018-02-18T00:13:26.428Z,58.60
2018-02-18T00:15:54.055Z,62.77
2018-02-18T00:18:21.995Z,60.37
2018-02-18T00:20:49.591Z,63.53
2018-02-18T00:23:17.161Z,60.77
2018-02-18T00:25:44.924Z,61.63
2018-02-18T00:28:12.497Z,63.53
2018-02-18T00:30:40.096Z,53.27
2018-02-18T00:33:07.760Z,62.30
2018-02-18T00:35:35.360Z,67.17
2018-02-18T00:38:03.725Z,66.83
2018-02-18T00:40:32.239Z,56.57
2018-02-18T00:42:59.890Z,65.13
2018-02-18T00:45:27.575Z,59.33
2018-02-18T00:47:55.255Z,62.27
2018-02-18T00:50:23.191Z,68.80
2018-02-18T00:52:50.911Z,62.77
2018-02-18T00:55:18.746Z,57.97
2018-02-18T00:57:46.537Z,57.60
2018-02-18T01:00:14.201Z,59.53
2018-02-18T01:02:42.469Z,60.20
2018-02-18T01:05:11.510Z,60.40
2018-02-18T01:07:39.170Z,54.00
2018-02-18T01:10:06.837Z,63.97
2018-02-18T01:12:34.543Z,61.97
2018-02-18T01:15:02.211Z,54.50
2018-02-18T01:17:29.926Z,66.43
2018-02-18T01:19:57.576Z,62.77
2018-02-18T01:22:26.038Z,65.07
2018-02-18T01:24:53.756Z,59.23
2018-02-18T01:27:21.765Z,60.67
2018-02-18T01:29:49.515Z,59.90
2018-02-18T01:32:17.208Z,63.23
2018-02-18T01:34:45.186Z,56.50
2018-02-18T01:37:12.820Z,58.63
2018-02-18T01:39:40.410Z,67.87
2018-02-18T01:42:08.783Z,63.93
2018-02-18T01:44:36.484Z,59.27
2018-02-18T01:47:04.142Z,64.17
2018-02-18T01:49:31.846Z,63.03
2018-02-18T01:51:59.540Z,63.17
2018-02-18T01:54:30.753Z,63.17
2018-02-18T01:56:58.411Z,74.13
2018-02-18T01:59:26.059Z,65.60
2018-02-18T02:01:53.724Z,63.30
2018-02-18T02:04:21.407Z,59.50
2018-02-18T02:06:49.132Z,68.40
2018-02-18T02:09:16.811Z,71.10
2018-02-18T02:11:44.486Z,67.43
2018-02-18T02:14:12.688Z,71.77
2018-02-18T02:16:40.484Z,55.40
2018-02-18T02:19:08.929Z,68.70
2018-02-18T02:21:36.801Z,62.20
2018-02-18T02:24:04.640Z,60.67
2018-02-18T02:26:32.331Z,59.47
2018-02-18T02:29:00.179Z,60.57
2018-02-18T02:31:27.848Z,64.80
2018-02-18T02:33:55.484Z,66.00
2018-02-18T02:36:23.393Z,61.67
2018-02-18T02:38:51.562Z,53.50
2018-02-18T02:41:19.267Z,67.77
2018-02-18T02:43:47.682Z,56.60
2018-02-18T02:46:17.381Z,65.60
2018-02-18T02:48:45.086Z,60.33
2018-02-18T02:51:12.752Z,59.53
2018-02-18T02:53:40.859Z,68.57
2018-02-18T02:56:08.475Z,62.13
2018-02-18T02:58:36.119Z,63.50
2018-02-18T03:01:04.395Z,58.60
2018-02-18T03:03:32.118Z,59.00
2018-02-18T03:05:59.789Z,56.03
2018-02-18T03:08:27.472Z,65.53
2018-02-18T03:10:55.138Z,64.03
2018-02-18T03:13:22.839Z,59.67
2018-02-18T03:15:50.675Z,60.23
2018-02-18T03:18:18.360Z,60.30
2018-02-18T03:20:46.210Z,58.70
2018-02-18T03:23:14.083Z,63.10
2018-02-18T03:25:42.489Z,54.93
2018-02-18T03:28:10.895Z,55.93
2018-02-18T03:30:38.758Z,57.73
2018-02-18T03:33:07.207Z,59.20
2018-02-18T03:35:35.778Z,63.77
2018-02-18T03:38:03.702Z,60.37
2018-02-18T03:40:32.705Z,63.33
2018-02-18T03:43:01.506Z,61.57
2018-02-18T03:45:29.369Z,61.80
2018-02-18T03:47:57.044Z,52.83
2018-02-18T03:50:24.879Z,56.53
2018-02-18T03:52:52.570Z,57.33
2018-02-18T03:55:20.748Z,54.03
2018-02-18T03:57:48.388Z,58.13
2018-02-18T04:00:16.833Z,52.23
2018-02-18T04:02:44.511Z,52.70
2018-02-18T04:05:12.180Z,52.30
2018-02-18T04:07:39.885Z,50.27
2018-02-18T04:10:07.550Z,49.93
2018-02-18T04:12:35.187Z,45.40
2018-02-18T04:15:03.741Z,49.57
2018-02-18T04:17:31.397Z,52.20
2018-02-18T04:19:59.145Z,51.87
2018-02-18T04:22:27.159Z,49.33
2018-02-18T04:24:54.831Z,58.47
2018-02-18T04:27:23.204Z,59.13
2018-02-18T04:29:51.293Z,52.60
2018-02-18T04:32:19.088Z,51.70
2018-02-18T04:34:46.873Z,50.83
2018-02-18T04:37:14.525Z,54.23
2018-02-18T04:39:42.201Z,57.77
2018-02-18T04:42:09.882Z,52.20
2018-02-18T04:44:46.106Z,49.63
2018-02-18T04:47:13.711Z,54.13
2018-02-18T04:49:41.385Z,57.17
2018-02-18T04:52:09.024Z,52.40
2018-02-18T04:54:36.709Z,55.33
2018-02-18T04:57:04.384Z,53.13
2018-02-18T04:59:32.012Z,54.90
2018-02-18T05:01:59.677Z,55.10
2018-02-18T05:04:27.322Z,50.00
2018-02-18T05:06:54.971Z,53.80
2018-02-18T05:09:22.636Z,52.15
2018-02-18T05:11:50.229Z,55.47
2018-02-18T05:14:21.704Z,51.57
2018-02-18T05:16:49.310Z,46.70
2018-02-18T05:19:16.921Z,49.30
2018-02-18T05:21:44.582Z,49.47
2018-02-18T05:24:13.137Z,48.90
2018-02-18T05:26:40.785Z,50.87
2018-02-18T05:29:08.439Z,47.17
2018-02-18T05:31:36.123Z,51.27
2018-02-18T05:34:03.805Z,47.37
2018-02-18T05:36:31.482Z,47.77
2018-02-18T05:38:59.131Z,46.90
2018-02-18T05:41:26.799Z,44.07
2018-02-18T05:43:54.448Z,48.37
2018-02-18T05:46:22.023Z,44.43
2018-02-18T05:48:49.685Z,43.87
2018-02-18T05:51:17.404Z,49.13
2018-02-18T05:53:45.036Z,44.50
2018-02-18T05:56:13.473Z,51.60
2018-02-18T05:58:41.127Z,49.20
2018-02-18T06:01:09.566Z,45.80
2018-02-18T06:03:38.003Z,51.57
2018-02-18T06:06:05.719Z,45.23
2018-02-18T06:08:34.159Z,45.50
2018-02-18T06:11:01.803Z,43.17
2018-02-18T06:13:29.468Z,45.00
2018-02-18T06:15:57.103Z,45.10
2018-02-18T06:18:24.771Z,45.47
2018-02-18T06:20:52.447Z,51.57
2018-02-18T06:23:20.024Z,44.97
2018-02-18T06:25:47.635Z,43.63
2018-02-18T06:28:15.282Z,44.07
2018-02-18T06:30:43.720Z,46.23
2018-02-18T06:33:11.391Z,52.97
2018-02-18T06:35:39.260Z,40.00
2018-02-18T06:38:06.927Z,47.20
2018-02-18T06:40:34.517Z,44.83
2018-02-18T06:43:02.176Z,38.90
2018-02-18T06:45:29.852Z,41.20
2018-02-18T06:47:57.511Z,49.83
2018-02-18T06:50:25.163Z,41.47
2018-02-18T06:52:52.830Z,43.33
2018-02-18T06:55:20.470Z,41.47
2018-02-18T06:57:48.120Z,36.93
2018-02-18T07:00:15.794Z,39.67
2018-02-18T07:02:43.449Z,41.67
2018-02-18T07:05:11.169Z,45.33
2018-02-18T07:07:38.839Z,39.53
2018-02-18T07:10:06.510Z,38.13
2018-02-18T07:12:34.149Z,40.90
2018-02-18T07:15:02.576Z,39.40
2018-02-18T07:17:30.238Z,41.77
2018-02-18T07:19:57.915Z,39.10
2018-02-18T07:22:25.593Z,36.80
2018-02-18T07:24:53.246Z,43.97
2018-02-18T07:27:20.933Z,37.77
2018-02-18T07:29:48.592Z,42.13
2018-02-18T07:32:16.239Z,38.87
2018-02-18T07:34:56.889Z,42.87
2018-02-18T07:37:24.590Z,44.23
2018-02-18T07:39:52.227Z,38.03
2018-02-18T07:42:19.863Z,38.67
2018-02-18T07:44:47.568Z,34.40
2018-02-18T07:47:19.882Z,40.80
2018-02-18T07:49:47.820Z,42.93
2018-02-18T07:52:15.511Z,37.53
2018-02-18T07:54:43.097Z,40.50
2018-02-18T07:57:10.708Z,39.53
2018-02-18T07:59:38.302Z,35.53
2018-02-18T08:02:05.998Z,36.33
2018-02-18T08:04:33.828Z,37.50
2018-02-18T08:07:01.470Z,33.90
2018-02-18T08:09:29.135Z,39.50
2018-02-18T08:11:56.804Z,36.20
2018-02-18T08:14:25.256Z,36.67
2018-02-18T08:16:52.919Z,34.93
2018-02-18T08:19:20.579Z,39.13
2018-02-18T08:21:49.148Z,31.77
2018-02-18T08:24:20.310Z,42.37
2018-02-18T08:26:48.007Z,38.60
2018-02-18T08:29:16.091Z,34.73
2018-02-18T08:31:44.511Z,37.47
2018-02-18T08:34:12.590Z,43.20
2018-02-18T08:36:40.220Z,42.10
2018-02-18T08:39:07.897Z,40.87
2018-02-18T08:41:35.565Z,41.40
2018-02-18T08:44:03.227Z,36.57
2018-02-18T08:46:30.902Z,42.37
2018-02-18T08:48:58.545Z,39.00
2018-02-18T08:51:26.205Z,38.23
2018-02-18T08:53:54.548Z,38.83
2018-02-18T08:56:22.978Z,40.53
2018-02-18T08:58:50.562Z,39.93
2018-02-18T09:01:21.755Z,40.47
2018-02-18T09:03:49.346Z,39.57
2018-02-18T09:06:17.576Z,39.00
2018-02-18T09:08:45.448Z,36.83
2018-02-18T09:11:13.883Z,42.20
2018-02-18T09:13:41.541Z,35.10
2018-02-18T09:16:12.916Z,39.80
2018-02-18T09:18:40.588Z,39.37
2018-02-18T09:21:08.247Z,36.63
2018-02-18T09:23:35.936Z,42.27
2018-02-18T09:26:03.562Z,37.53
2018-02-18T09:28:31.249Z,39.10
2018-02-18T09:30:59.652Z,35.87
2018-02-18T09:33:27.307Z,37.27
2018-02-18T09:35:54.976Z,40.73
2018-02-18T09:38:22.639Z,41.53
2018-02-18T09:40:50.278Z,37.43
2018-02-18T09:43:17.937Z,33.03
2018-02-18T09:45:45.797Z,35.57
2018-02-18T09:48:13.407Z,37.43
2018-02-18T09:50:41.005Z,40.20
2018-02-18T09:53:08.586Z,35.03
2018-02-18T09:55:36.154Z,35.93
2018-02-18T09:58:04.573Z,32.20
2018-02-18T10:00:32.225Z,37.90
2018-02-18T10:02:59.892Z,36.23
2018-02-18T10:05:27.593Z,38.23
2018-02-18T10:07:55.264Z,33.43
2018-02-18T10:10:22.957Z,34.37
2018-02-18T10:12:51.384Z,36.73
2018-02-18T10:15:27.547Z,35.70
2018-02-18T10:17:55.143Z,38.40
2018-02-18T10:20:22.803Z,38.57
2018-02-18T10:22:50.492Z,34.10
2018-02-18T10:25:18.943Z,31.97
2018-02-18T10:27:46.612Z,32.97
2018-02-18T10:30:14.268Z,33.93
2018-02-18T10:32:41.919Z,30.60
2018-02-18T10:35:09.577Z,34.13
2018-02-18T10:37:37.247Z,29.83
2018-02-18T10:40:04.910Z,31.13
2018-02-18T10:42:32.587Z,29.53
2018-02-18T10:45:00.437Z,32.23
2018-02-18T10:47:28.136Z,30.33
2018-02-18T10:49:56.573Z,30.73
2018-02-18T10:52:24.245Z,31.60
2018-02-18T10:54:52.143Z,33.37
2018-02-18T10:57:20.292Z,34.17
2018-02-18T10:59:48.083Z,28.93
2018-02-18T11:02:15.897Z,30.97
2018-02-18T11:04:43.542Z,31.80
2018-02-18T11:07:11.940Z,31.30
2018-02-18T11:09:40.288Z,28.13
2018-02-18T11:12:08.075Z,31.10
2018-02-18T11:14:36.677Z,32.00
2018-02-18T11:17:04.369Z,24.53
2018-02-18T11:19:32.665Z,29.87
2018-02-18T11:22:01.246Z,26.97
2018-02-18T11:24:30.569Z,28.70
2018-02-18T11:26:58.734Z,28.90
2018-02-18T11:29:26.510Z,30.37
2018-02-18T11:31:54.146Z,31.37
2018-02-18T11:34:21.801Z,29.03
2018-02-18T11:36:50.627Z,31.23
2018-02-18T11:39:18.441Z,28.27
2018-02-18T11:41:46.101Z,31.87
2018-02-18T11:44:14.573Z,27.57
2018-02-18T11:46:43.084Z,29.20
2018-02-18T11:49:10.732Z,28.90
2018-02-18T11:51:38.427Z,29.73
2018-02-18T11:54:07.143Z,28.13
2018-02-18T11:56:34.978Z,25.27
2018-02-18T11:59:02.638Z,29.10
2018-02-18T12:01:30.304Z,25.17
2018-02-18T12:03:58.367Z,30.40
2018-02-18T12:06:26.512Z,28.83
2018-02-18T12:08:54.171Z,24.97
2018-02-18T12:11:21.871Z,27.17
2018-02-18T12:13:50.025Z,24.23
2018-02-18T12:16:17.734Z,24.20
2018-02-18T12:18:45.404Z,23.17
2018-02-18T12:21:13.778Z,26.57
2018-02-18T12:23:41.430Z,23.93
2018-02-18T12:26:09.029Z,24.27
2018-02-18T12:28:39.620Z,24.67
2018-02-18T12:31:07.363Z,24.40
2018-02-18T12:33:36.214Z,24.37
2018-02-18T12:36:03.812Z,23.00
2018-02-18T12:38:31.455Z,24.13
2018-02-18T12:41:04.915Z,26.47
2018-02-18T12:43:32.565Z,22.90
2018-02-18T12:46:00.168Z,23.13
2018-02-18T12:48:28.463Z,24.47
2018-02-18T12:50:56.094Z,29.43
2018-02-18T12:53:24.516Z,27.43
2018-02-18T12:55:52.123Z,26.27
2018-02-18T12:58:19.796Z,27.90
2018-02-18T13:00:48.128Z,27.93
2018-02-18T13:03:16.538Z,24.27
2018-02-18T13:05:44.549Z,28.27
2018-02-18T13:08:12.218Z,27.33
2018-02-18T13:10:39.878Z,28.57
2018-02-18T13:13:07.575Z,25.40
2018-02-18T13:15:35.973Z,25.23
2018-02-18T13:18:03.631Z,25.90
2018-02-18T13:20:31.330Z,27.53
2018-02-18T13:22:59.002Z,29.10
2018-02-18T13:25:26.887Z,27.47
2018-02-18T13:27:54.746Z,25.57
2018-02-18T13:30:22.509Z,26.70
2018-02-18T13:32:50.341Z,25.97
2018-02-18T13:35:18.487Z,24.43
2018-02-18T13:37:46.584Z,29.30
2018-02-18T13:40:15.285Z,25.93
2018-02-18T13:42:43.617Z,31.33
2018-02-18T13:45:13.450Z,23.80
2018-02-18T13:47:41.098Z,30.00
2018-02-18T13:50:08.762Z,30.07
2018-02-18T13:52:36.883Z,26.40
2018-02-18T13:55:04.602Z,28.83
2018-02-18T13:57:32.288Z,27.33
2018-02-18T13:59:59.950Z,26.43
2018-02-18T14:02:27.582Z,24.90
2018-02-18T14:04:55.585Z,27.47
2018-02-18T14:07:23.435Z,26.20
2018-02-18T14:09:51.550Z,22.40
2018-02-18T14:12:19.238Z,23.00
2018-02-18T14:14:48.052Z,24.03
2018-02-18T14:17:15.748Z,25.10
2018-02-18T14:19:43.396Z,25.73
2018-02-18T14:22:11.062Z,25.30
2018-02-18T14:24:38.642Z,23.80
2018-02-18T14:27:06.302Z,27.83
2018-02-18T14:29:34.744Z,27.50
2018-02-18T14:32:02.450Z,26.80
2018-02-18T14:34:30.885Z,28.87
2018-02-18T14:36:58.547Z,23.47
2018-02-18T14:39:26.193Z,23.17
2018-02-18T14:42:05.653Z,26.27
2018-02-18T14:44:45.153Z,22.03
2018-02-18T14:47:24.624Z,23.80
2018-02-18T14:50:03.923Z,24.63
2018-02-18T14:52:43.209Z,22.57
2018-02-18T14:58:15.257Z,26.83
2018-02-18T15:00:42.929Z,24.67
2018-02-18T15:03:10.578Z,26.07
2018-02-18T15:05:40.205Z,25.10
2018-02-18T15:08:07.858Z,25.23
2018-02-18T15:10:35.498Z,26.10
2018-02-18T15:13:03.173Z,24.33
2018-02-18T15:15:31.583Z,25.37
2018-02-18T15:17:59.261Z,23.47
2018-02-18T15:20:26.928Z,29.10
2018-02-18T15:22:54.589Z,29.00
2018-02-18T15:25:22.208Z,25.40
2018-02-18T15:27:49.838Z,26.33
2018-02-18T15:30:17.504Z,25.33
2018-02-18T15:32:45.166Z,25.00
2018-02-18T15:35:14.928Z,26.50
2018-02-18T15:37:42.585Z,26.67
2018-02-18T15:40:10.224Z,30.27
2018-02-18T15:42:37.887Z,27.40
2018-02-18T15:45:06.336Z,27.17
2018-02-18T15:47:33.938Z,24.17
2018-02-18T15:50:01.580Z,26.40
2018-02-18T15:52:29.217Z,23.37
2018-02-18T15:54:56.887Z,29.37
2018-02-18T15:57:24.582Z,24.27
2018-02-18T15:59:53.014Z,25.90
2018-02-18T16:02:20.985Z,28.20
2018-02-18T16:04:48.758Z,24.87
2018-02-18T16:07:16.434Z,25.37
2018-02-18T16:09:44.127Z,23.80
2018-02-18T16:12:11.886Z,28.17
2018-02-18T16:14:39.652Z,23.27
2018-02-18T16:17:07.490Z,27.87
2018-02-18T16:19:35.972Z,21.43
2018-02-18T16:22:04.192Z,26.50
2018-02-18T16:24:32.559Z,26.13
2018-02-18T16:27:00.526Z,25.53
2018-02-18T16:29:29.452Z,22.77
2018-02-18T16:31:57.070Z,28.97
2018-02-18T16:34:26.821Z,23.27
2018-02-18T16:36:54.524Z,26.73
2018-02-18T16:39:23.183Z,24.50
2018-02-18T16:41:51.620Z,30.17
2018-02-18T16:44:20.480Z,29.67
2018-02-18T16:46:48.116Z,29.77
2018-02-18T16:49:15.794Z,22.80
2018-02-18T16:51:43.437Z,27.00
2018-02-18T16:54:11.313Z,23.80
2018-02-18T16:56:39.730Z,35.30
2018-02-18T16:59:09.045Z,28.17
2018-02-18T17:01:37.952Z,31.57
2018-02-18T17:04:06.298Z,32.20
2018-02-18T17:06:33.967Z,30.20
2018-02-18T17:09:04.412Z,30.97
2018-02-18T17:11:32.770Z,34.90
2018-02-18T17:14:01.736Z,27.73
2018-02-18T17:16:29.584Z,31.40
2018-02-18T17:18:58.537Z,34.73
2018-02-18T17:21:27.286Z,31.47
2018-02-18T17:23:56.641Z,32.30
2018-02-18T17:26:25.089Z,35.50
2018-02-18T17:28:52.944Z,36.30
2018-02-18T17:31:21.893Z,34.57
2018-02-18T17:33:49.793Z,35.47
2018-02-18T17:36:17.951Z,29.77
2018-02-18T17:38:47.383Z,33.47
2018-02-18T17:41:17.090Z,31.93
2018-02-18T17:43:44.868Z,33.27
2018-02-18T17:46:12.964Z,34.93
2018-02-18T17:48:40.621Z,35.33
2018-02-18T17:51:08.265Z,30.13
2018-02-18T17:53:35.921Z,34.60
2018-02-18T17:56:03.853Z,34.73
2018-02-18T17:58:31.507Z,35.87
2018-02-18T18:00:59.297Z,32.37
2018-02-18T18:03:27.611Z,36.30
2018-02-18T18:05:55.749Z,37.57
2018-02-18T18:08:24.859Z,36.00
2018-02-18T18:10:52.530Z,37.83
2018-02-18T18:13:20.199Z,32.73
2018-02-18T18:15:48.841Z,34.07
2018-02-18T18:18:17.499Z,31.50
2018-02-18T18:20:45.233Z,36.60
2018-02-18T18:23:13.029Z,37.27
2018-02-18T18:25:41.618Z,31.97
2018-02-18T18:28:09.365Z,34.73
2018-02-18T18:30:37.225Z,35.53
2018-02-18T18:33:06.152Z,32.83
2018-02-18T18:35:34.743Z,35.17
2018-02-18T18:38:04.091Z,35.93
2018-02-18T18:40:32.009Z,34.63
2018-02-18T18:43:00.116Z,36.53
2018-02-18T18:45:28.225Z,36.23
2018-02-18T18:47:55.889Z,40.40
2018-02-18T18:50:24.433Z,36.67
2018-02-18T18:52:52.656Z,35.23
2018-02-18T18:55:21.317Z,37.70
2018-02-18T18:57:49.243Z,36.83
2018-02-18T19:00:17.052Z,36.23
2018-02-18T19:02:44.652Z,37.13
2018-02-18T19:05:13.261Z,38.50
2018-02-18T19:07:42.632Z,35.83
2018-02-18T19:10:12.524Z,43.83
2018-02-18T19:12:41.855Z,39.33
2018-02-18T19:15:10.556Z,40.77
2018-02-18T19:17:38.724Z,36.00
2018-02-18T19:20:06.871Z,36.83
2018-02-18T19:22:35.960Z,33.63
2018-02-18T19:25:04.666Z,42.53
2018-02-18T19:27:35.024Z,37.73
2018-02-18T19:30:03.319Z,43.70
2018-02-18T19:32:31.008Z,45.60
2018-02-18T19:35:00.591Z,43.23
2018-02-18T19:37:28.277Z,46.73
2018-02-18T19:39:58.831Z,43.90
2018-02-18T19:42:26.833Z,43.73
2018-02-18T19:44:55.143Z,43.87
2018-02-18T19:47:24.840Z,41.50
2018-02-18T19:49:53.743Z,43.70
2018-02-18T19:52:22.853Z,45.27
2018-02-18T19:54:53.257Z,41.20
2018-02-18T19:57:22.974Z,38.23
2018-02-18T19:59:53.680Z,38.90
2018-02-18T20:02:23.547Z,37.77
2018-02-18T20:04:52.643Z,36.93
2018-02-18T20:07:24.656Z,39.30
2018-02-18T20:09:54.179Z,40.40
2018-02-18T20:12:21.908Z,34.90
2018-02-18T20:14:49.596Z,39.73
2018-02-18T20:17:17.304Z,33.03
2018-02-18T20:19:45.627Z,38.07
2018-02-18T20:22:13.272Z,36.53
2018-02-18T20:24:44.292Z,40.57
2018-02-18T20:27:11.956Z,38.23
2018-02-18T20:29:39.601Z,44.30
2018-02-18T20:32:07.277Z,38.27
2018-02-18T20:34:34.920Z,38.43
2018-02-18T20:37:02.597Z,39.07
2018-02-18T20:39:30.243Z,40.77
2018-02-18T20:41:58.676Z,38.33
2018-02-18T20:44:26.449Z,36.33
2018-02-18T20:46:54.047Z,36.03
2018-02-18T20:49:22.479Z,40.30
2018-02-18T20:51:50.693Z,43.57
2018-02-18T20:54:18.709Z,40.87
2018-02-18T20:56:46.372Z,47.03
2018-02-18T20:59:14.525Z,153.03
2018-02-18T21:01:43.569Z,105.03
2018-02-18T21:04:11.394Z,76.60
2018-02-18T21:06:39.066Z,46.03
2018-02-18T21:09:06.731Z,40.77
2018-02-18T21:11:34.397Z,43.40
2018-02-18T21:14:02.056Z,41.17
2018-02-18T21:16:30.676Z,40.13
2018-02-18T21:18:58.525Z,40.53
2018-02-18T21:21:26.215Z,37.53
2018-02-18T21:23:55.614Z,37.23
2018-02-18T21:26:23.234Z,35.87
2018-02-18T21:28:50.880Z,38.57
2018-02-18T21:31:18.550Z,38.33
2018-02-18T21:33:46.206Z,34.20
2018-02-18T21:36:14.566Z,36.50
2018-02-18T21:38:43.026Z,34.30
2018-02-18T21:41:10.649Z,35.60
2018-02-18T21:43:38.369Z,33.83
2018-02-18T21:46:06.077Z,38.20
2018-02-18T21:48:33.733Z,30.53
2018-02-18T21:51:01.417Z,36.03
2018-02-18T21:53:29.104Z,40.20
2018-02-18T21:55:56.773Z,31.90
2018-02-18T21:58:24.486Z,34.43
2018-02-18T22:00:52.155Z,33.50
2018-02-18T22:03:19.810Z,34.93
2018-02-18T22:05:47.515Z,33.47
2018-02-18T22:08:15.192Z,28.73
2018-02-18T22:10:42.867Z,29.37
2018-02-18T22:13:10.515Z,32.27
2018-02-18T22:15:38.327Z,31.53
2018-02-18T22:18:05.938Z,30.27
2018-02-18T22:20:33.585Z,28.17
2018-02-18T22:23:01.231Z,29.97
2018-02-18T22:25:28.901Z,30.77
2018-02-18T22:27:56.509Z,33.27
2018-02-18T22:30:24.208Z,30.47
2018-02-18T22:32:51.867Z,28.90
2018-02-18T22:35:20.819Z,30.20
2018-02-18T22:37:48.629Z,28.10
2018-02-18T22:40:16.345Z,27.37
2018-02-18T22:42:43.992Z,30.83
2018-02-18T22:45:11.870Z,26.27
2018-02-18T22:47:39.533Z,32.67
2018-02-18T22:50:07.190Z,30.50
2018-02-18T22:52:34.880Z,28.17
2018-02-18T22:55:02.541Z,24.70
2018-02-18T22:57:30.191Z,25.70
2018-02-18T22:59:57.901Z,30.07
2018-02-18T23:02:25.521Z,31.10
2018-02-18T23:07:54.171Z,25.00
2018-02-18T23:10:21.801Z,32.00
2018-02-18T23:12:49.448Z,27.10
2018-02-18T23:15:17.090Z,29.53
2018-02-18T23:17:44.770Z,28.63
2018-02-18T23:20:12.418Z,28.47
2018-02-18T23:22:40.066Z,26.47
2018-02-18T23:25:08.970Z,29.37
2018-02-18T23:27:36.539Z,27.67
2018-02-18T23:30:04.132Z,25.70
2018-02-18T23:32:31.744Z,25.27
2018-02-18T23:34:59.393Z,29.70
2018-02-18T23:37:27.086Z,28.93
2018-02-18T23:39:54.723Z,27.90
2018-02-18T23:42:23.879Z,29.10
2018-02-18T23:44:53.854Z,29.40
2018-02-18T23:47:21.533Z,25.33
2018-02-18T23:49:49.921Z,29.07
2018-02-18T23:52:17.896Z,31.50
2018-02-18T23:54:46.790Z,31.37
2018-02-18T23:57:14.440Z,26.73
2018-02-18T23:59:42.045Z,31.20
